Cambridgeport, Vermont
Current Conditions -  °F | °C
As of 6:14 AM on Sunday 21 Dec 2014 (Local Time) from KVSF Reporting Station
Overcast Overcast  
Wind Chill: 25°   Ceiling: 3400
Heat Index: 25°   Visibility: 7mi
Dew Point: 21°   Wind: 0mph
Humidity: 85%   Direction: NA
Pressure: 30.31"   Gusts: NA
Location:  43.14°N, 72.56°W
Report Text: KVSF 211114Z AUTO 00000KT 7SM SCT026 OVC034 M04/M06 A3031 RMK AO2 T10391061 TSNO
Loading
Personal Weather Stations






























Interactive Weather Map New forecast layout! Learn more

10-Day Weather Forecast

Advertisements
Track Severe Weather on mobile